createdAt,value
2022-11-16T00:02:43.781Z,7.88
2022-11-16T00:07:45.940Z,7.89
2022-11-16T00:12:47.953Z,7.91
2022-11-16T00:17:49.983Z,7.89
2022-11-16T00:22:52.024Z,7.97
2022-11-16T00:27:54.052Z,7.98
2022-11-16T00:33:00.615Z,7.99
2022-11-16T00:38:02.634Z,7.95
2022-11-16T00:43:04.693Z,8.03
2022-11-16T00:48:06.719Z,8.05
2022-11-16T00:53:12.891Z,8.04
2022-11-16T00:58:15.739Z,7.98
2022-11-16T01:03:17.848Z,8.02
2022-11-16T01:08:19.881Z,7.98
2022-11-16T01:13:21.970Z,7.95
2022-11-16T01:18:24.017Z,7.95
2022-11-16T01:23:26.027Z,7.94
2022-11-16T01:28:30.400Z,7.94
2022-11-16T01:33:32.526Z,7.95
2022-11-16T01:38:34.887Z,7.94
2022-11-16T01:44:01.289Z,7.96
2022-11-16T01:49:24.149Z,7.96
2022-11-16T01:54:27.396Z,7.94
2022-11-16T01:59:30.315Z,7.95
2022-11-16T02:04:32.485Z,7.92
2022-11-16T02:09:59.370Z,7.98
2022-11-16T02:15:01.350Z,7.98
2022-11-16T02:20:29.446Z,7.96
2022-11-16T02:25:40.086Z,7.96
2022-11-16T02:30:47.131Z,7.94
2022-11-16T02:35:55.254Z,7.96
2022-11-16T02:41:02.192Z,7.94
2022-11-16T02:46:09.110Z,7.93
2022-11-16T02:51:12.012Z,7.98
2022-11-16T02:56:14.096Z,7.98
2022-11-16T03:01:24.921Z,8.01
2022-11-16T03:06:32.355Z,7.99
2022-11-16T03:11:57.382Z,8.00
2022-11-16T03:17:01.961Z,7.99
2022-11-16T03:22:12.455Z,7.99
2022-11-16T03:27:20.712Z,8.03
2022-11-16T03:32:38.988Z,8.07
2022-11-16T03:37:41.836Z,8.07
2022-11-16T03:42:45.821Z,8.05
2022-11-16T03:47:47.889Z,8.08
2022-11-16T03:52:49.915Z,8.07
2022-11-16T03:57:51.949Z,8.10
2022-11-16T04:02:53.967Z,8.14
2022-11-16T04:08:14.766Z,8.17
2022-11-16T04:13:42.314Z,8.15
2022-11-16T04:19:03.125Z,8.14
2022-11-16T04:24:14.846Z,8.15
2022-11-16T04:29:17.194Z,8.17
2022-11-16T04:34:37.843Z,8.16
2022-11-16T04:39:39.876Z,8.19
2022-11-16T04:45:00.727Z,8.18
2022-11-16T04:50:02.983Z,8.19
2022-11-16T04:55:05.564Z,8.21
2022-11-16T05:00:08.382Z,8.18
2022-11-16T05:05:10.490Z,8.18
2022-11-16T05:10:13.351Z,8.18
2022-11-16T05:15:17.648Z,8.18
2022-11-16T05:20:38.495Z,8.19
2022-11-16T05:25:40.535Z,8.21
2022-11-16T05:30:45.718Z,8.14
2022-11-16T05:35:51.067Z,8.11
2022-11-16T05:40:53.132Z,8.19
2022-11-16T05:45:55.142Z,8.22
2022-11-16T05:51:00.473Z,8.21
2022-11-16T05:56:02.620Z,8.20
2022-11-16T06:01:04.790Z,8.22
2022-11-16T06:06:07.203Z,8.27
2022-11-16T06:11:10.383Z,8.29
2022-11-16T06:16:13.465Z,8.28
2022-11-16T06:21:17.579Z,8.27
2022-11-16T06:26:19.663Z,8.29
2022-11-16T06:31:22.410Z,8.31
2022-11-16T06:36:24.709Z,8.32
2022-11-16T06:41:26.771Z,8.38
2022-11-16T06:46:28.830Z,8.35
2022-11-16T06:51:30.847Z,8.38
2022-11-16T06:56:35.092Z,8.43
2022-11-16T07:01:37.301Z,8.46
2022-11-16T07:06:39.663Z,8.41
2022-11-16T07:11:41.744Z,8.37
2022-11-16T07:21:54.602Z,8.41
2022-11-16T07:26:56.674Z,8.53
2022-11-16T07:31:58.931Z,8.58
2022-11-16T07:37:01.008Z,8.54
2022-11-16T07:42:03.060Z,8.55
2022-11-16T07:47:06.015Z,8.66
2022-11-16T07:52:11.782Z,8.69
2022-11-16T07:57:13.968Z,8.77
2022-11-16T08:02:16.132Z,8.90
2022-11-16T08:07:19.056Z,9.03
2022-11-16T08:12:21.231Z,9.16
2022-11-16T08:17:23.330Z,9.21
2022-11-16T08:22:25.381Z,9.29
2022-11-16T08:27:27.532Z,9.31
2022-11-16T08:32:30.746Z,9.28
2022-11-16T08:37:33.850Z,9.26
2022-11-16T08:42:40.758Z,9.34
2022-11-16T08:47:45.675Z,9.27
2022-11-16T08:52:48.292Z,9.19
2022-11-16T08:57:50.333Z,9.36
2022-11-16T09:02:52.417Z,9.41
2022-11-16T09:07:54.450Z,9.47
2022-11-16T09:12:56.565Z,9.42
2022-11-16T09:17:58.642Z,9.46
2022-11-16T09:23:00.765Z,9.49
2022-11-16T09:28:02.817Z,9.55
2022-11-16T09:33:04.809Z,9.50
2022-11-16T09:38:07.562Z,9.54
2022-11-16T09:43:19.405Z,9.47
2022-11-16T09:48:23.641Z,9.39
2022-11-16T09:53:42.690Z,9.52
2022-11-16T09:59:05.877Z,9.57
2022-11-16T10:04:13.064Z,9.60
2022-11-16T10:09:16.077Z,9.60
2022-11-16T10:14:40.649Z,9.60
2022-11-16T10:19:55.119Z,9.66
2022-11-16T10:25:20.506Z,9.72
2022-11-16T10:30:23.457Z,9.61
2022-11-16T10:35:40.774Z,9.61
2022-11-16T10:40:47.597Z,9.68
2022-11-16T10:46:00.026Z,9.68
2022-11-16T10:51:02.132Z,9.73
2022-11-16T10:56:23.146Z,9.62
2022-11-16T11:01:37.858Z,9.64
2022-11-16T11:06:40.494Z,9.61
2022-11-16T11:12:00.974Z,9.71
2022-11-16T11:17:12.290Z,9.75
2022-11-16T11:22:15.278Z,9.86
2022-11-16T11:27:23.174Z,9.83
2022-11-16T11:32:38.530Z,9.91
2022-11-16T11:37:40.690Z,9.75
2022-11-16T11:43:01.899Z,9.60
2022-11-16T11:48:29.062Z,9.62
2022-11-16T11:53:48.197Z,9.68
2022-11-16T11:58:51.946Z,9.48
2022-11-16T12:04:22.887Z,9.56
2022-11-16T12:09:40.815Z,9.54
2022-11-16T12:15:27.057Z,9.67
2022-11-16T12:20:47.177Z,9.73
2022-11-16T12:26:10.719Z,9.67
2022-11-16T12:31:30.899Z,9.71
2022-11-16T12:36:35.599Z,9.69
2022-11-16T12:42:02.725Z,9.70
2022-11-16T12:47:49.462Z,9.75
2022-11-16T12:52:57.773Z,9.72
2022-11-16T12:58:24.797Z,9.68
2022-11-16T13:03:42.957Z,9.82
2022-11-16T13:09:10.892Z,9.77
2022-11-16T13:14:18.166Z,9.70
2022-11-16T13:19:21.135Z,9.54
2022-11-16T13:24:40.647Z,9.59
2022-11-16T13:29:51.563Z,9.58
2022-11-16T13:34:54.644Z,9.52
2022-11-16T13:39:59.799Z,9.55
2022-11-16T13:45:13.970Z,9.54
2022-11-16T13:50:19.677Z,9.51
2022-11-16T13:55:33.393Z,9.38
2022-11-16T14:00:38.619Z,9.37
2022-11-16T14:05:43.217Z,9.27
2022-11-16T14:10:45.219Z,9.28
2022-11-16T14:16:16.614Z,9.30
2022-11-16T14:21:18.710Z,9.30
2022-11-16T14:26:41.026Z,9.24
2022-11-16T14:32:03.646Z,9.19
2022-11-16T14:37:06.067Z,9.21
2022-11-16T14:42:18.158Z,9.21
2022-11-16T14:47:28.790Z,9.20
2022-11-16T14:52:38.847Z,9.19
2022-11-16T14:57:41.233Z,9.13
2022-11-16T15:02:51.026Z,9.03
2022-11-16T15:07:59.011Z,9.06
2022-11-16T15:13:01.266Z,8.96
2022-11-16T15:18:03.231Z,8.98
2022-11-16T15:23:14.337Z,8.98
2022-11-16T15:28:28.689Z,9.02
2022-11-16T15:33:38.227Z,8.96
2022-11-16T15:38:41.801Z,8.96
2022-11-16T15:44:12.654Z,9.01
2022-11-16T15:49:33.568Z,9.02
2022-11-16T15:54:55.929Z,9.03
2022-11-16T15:59:58.209Z,9.02
2022-11-16T16:05:00.245Z,9.04
2022-11-16T16:10:24.275Z,8.93
2022-11-16T16:15:36.194Z,8.86
2022-11-16T16:20:38.392Z,8.80
2022-11-16T16:25:41.451Z,8.73
2022-11-16T16:30:45.815Z,8.80
2022-11-16T16:35:49.851Z,8.86
2022-11-16T16:40:51.959Z,8.79
2022-11-16T16:45:54.008Z,8.81
2022-11-16T16:50:56.130Z,8.73
2022-11-16T16:55:58.170Z,8.73
2022-11-16T17:01:04.968Z,8.79
2022-11-16T17:06:07.084Z,8.79
2022-11-16T17:11:10.180Z,8.74
2022-11-16T17:16:12.428Z,8.93
2022-11-16T17:21:17.460Z,8.75
2022-11-16T17:26:20.452Z,8.78
2022-11-16T17:31:23.258Z,8.77
2022-11-16T17:36:25.353Z,8.74
2022-11-16T17:41:28.110Z,8.76
2022-11-16T17:46:30.157Z,8.78
2022-11-16T17:51:32.516Z,8.68
2022-11-16T17:56:34.686Z,8.70
2022-11-16T18:01:36.981Z,8.71
2022-11-16T18:06:39.965Z,8.57
2022-11-16T18:11:42.361Z,8.71
2022-11-16T18:16:44.465Z,8.82
2022-11-16T18:21:46.924Z,8.79
2022-11-16T18:26:48.989Z,8.71
2022-11-16T18:31:51.082Z,8.80
2022-11-16T18:36:53.176Z,8.80
2022-11-16T18:41:56.351Z,8.85
2022-11-16T18:46:58.366Z,8.76
2022-11-16T18:52:00.479Z,8.76
2022-11-16T18:57:02.523Z,8.89
2022-11-16T19:02:04.621Z,8.88
2022-11-16T19:07:07.729Z,8.69
2022-11-16T19:12:09.928Z,8.77
2022-11-16T19:17:12.024Z,8.89
2022-11-16T19:22:16.658Z,8.70
2022-11-16T19:27:32.569Z,8.70
2022-11-16T19:32:34.607Z,8.67
2022-11-16T19:37:37.529Z,8.78
2022-11-16T19:42:39.661Z,8.69
2022-11-16T19:47:41.836Z,8.79
2022-11-16T19:52:48.061Z,8.76
2022-11-16T19:57:50.334Z,8.76
2022-11-16T20:02:57.407Z,8.79
2022-11-16T20:07:59.544Z,8.71
2022-11-16T20:13:01.829Z,8.67
2022-11-16T20:18:04.042Z,8.71
2022-11-16T20:23:15.760Z,8.70
2022-11-16T20:28:18.013Z,8.73
2022-11-16T20:38:40.768Z,8.80
2022-11-16T20:43:44.002Z,8.76
2022-11-16T20:48:47.162Z,8.71
2022-11-16T20:53:50.367Z,8.75
2022-11-16T20:58:52.720Z,8.73
2022-11-16T21:03:56.388Z,8.87
2022-11-16T21:08:59.092Z,8.98
2022-11-16T21:14:16.044Z,9.04
2022-11-16T21:19:18.178Z,9.02
2022-11-16T21:24:21.775Z,8.93
2022-11-16T21:29:26.085Z,8.91
2022-11-16T21:34:33.541Z,8.90
2022-11-16T21:39:38.042Z,8.94
2022-11-16T21:44:43.077Z,8.94
2022-11-16T21:50:09.808Z,8.89
2022-11-16T21:55:11.958Z,8.80
2022-11-16T22:00:14.750Z,8.69
2022-11-16T22:05:35.687Z,8.75
2022-11-16T22:10:42.388Z,8.83
2022-11-16T22:15:44.443Z,8.91
2022-11-16T22:20:48.180Z,8.86
2022-11-16T22:25:50.221Z,8.85
2022-11-16T22:31:20.322Z,9.01
2022-11-16T22:36:22.593Z,9.13
2022-11-16T22:41:25.040Z,9.07
2022-11-16T22:46:27.616Z,8.90
2022-11-16T22:51:30.827Z,8.73
2022-11-16T22:56:33.544Z,8.51
2022-11-16T23:01:36.334Z,8.61
2022-11-16T23:06:38.374Z,8.63
2022-11-16T23:11:58.980Z,8.80
2022-11-16T23:17:01.464Z,8.78
2022-11-16T23:22:22.727Z,8.58
2022-11-16T23:27:30.765Z,8.58
2022-11-16T23:32:33.173Z,8.57
2022-11-16T23:37:35.567Z,8.59
2022-11-16T23:42:56.310Z,8.61
2022-11-16T23:47:58.568Z,8.60
2022-11-16T23:53:00.675Z,8.60
2022-11-16T23:58:02.704Z,8.61
